createdAt,value
2018-06-19T00:01:16.247Z,57.13
2018-06-19T00:03:43.829Z,57.48
2018-06-19T00:06:11.271Z,57.67
2018-06-19T00:08:38.721Z,57.61
2018-06-19T00:11:06.119Z,57.54
2018-06-19T00:13:33.569Z,57.90
2018-06-19T00:16:01.031Z,58.24
2018-06-19T00:18:28.493Z,58.34
2018-06-19T00:20:55.940Z,58.48
2018-06-19T00:23:23.375Z,58.70
2018-06-19T00:25:50.839Z,58.70
2018-06-19T00:28:18.291Z,58.85
2018-06-19T00:30:45.757Z,59.11
2018-06-19T00:33:13.398Z,59.06
2018-06-19T00:35:40.880Z,59.02
2018-06-19T00:38:08.288Z,59.17
2018-06-19T00:40:35.726Z,59.05
2018-06-19T00:43:03.183Z,58.72
2018-06-19T00:45:30.593Z,58.84
2018-06-19T00:47:58.083Z,59.08
2018-06-19T00:50:25.493Z,59.33
2018-06-19T00:52:53.110Z,59.31
2018-06-19T00:55:21.079Z,59.55
2018-06-19T00:57:48.511Z,59.76
2018-06-19T01:00:16.009Z,60.06
2018-06-19T01:02:43.478Z,60.27
2018-06-19T01:05:10.946Z,60.49
2018-06-19T01:07:38.460Z,60.86
2018-06-19T01:10:05.922Z,61.24
2018-06-19T01:12:33.464Z,61.34
2018-06-19T01:15:00.923Z,61.64
2018-06-19T01:17:28.371Z,61.88
2018-06-19T01:19:55.793Z,62.10
2018-06-19T01:22:23.241Z,62.15
2018-06-19T01:24:50.692Z,62.30
2018-06-19T01:27:18.302Z,62.33
2018-06-19T01:29:45.750Z,62.24
2018-06-19T01:32:13.472Z,62.17
2018-06-19T01:34:41.044Z,62.19
2018-06-19T01:37:08.494Z,62.07
2018-06-19T01:39:35.907Z,62.23
2018-06-19T01:42:03.347Z,62.28
2018-06-19T01:44:30.822Z,62.41
2018-06-19T01:46:58.270Z,62.46
2018-06-19T01:49:25.751Z,62.44
2018-06-19T01:51:53.195Z,62.50
2018-06-19T01:54:20.786Z,62.74
2018-06-19T01:56:48.245Z,62.76
2018-06-19T01:59:15.673Z,62.74
2018-06-19T02:01:43.125Z,62.72
2018-06-19T02:04:10.543Z,62.65
2018-06-19T02:06:38.003Z,62.61
2018-06-19T02:09:05.435Z,62.81
2018-06-19T02:11:33.009Z,62.91
2018-06-19T02:14:00.422Z,62.98
2018-06-19T02:16:27.832Z,63.10
2018-06-19T02:18:55.258Z,63.96
2018-06-19T02:21:22.893Z,63.36
2018-06-19T02:23:50.348Z,63.50
2018-06-19T02:26:17.782Z,63.99
2018-06-19T02:28:45.252Z,64.68
2018-06-19T02:31:12.724Z,65.84
2018-06-19T02:33:40.348Z,66.40
2018-06-19T02:36:07.816Z,66.54
2018-06-19T02:38:35.256Z,66.24
2018-06-19T02:41:03.746Z,66.15
2018-06-19T02:43:31.189Z,66.46
2018-06-19T02:45:58.658Z,66.68
2018-06-19T02:48:26.057Z,67.29
2018-06-19T02:50:53.495Z,67.93
2018-06-19T02:53:21.120Z,68.34
2018-06-19T02:55:48.674Z,68.75
2018-06-19T02:58:16.108Z,68.99
2018-06-19T03:00:43.626Z,69.43
2018-06-19T03:03:11.036Z,69.33
2018-06-19T03:05:39.067Z,69.11
2018-06-19T03:08:06.477Z,68.59
2018-06-19T03:10:34.037Z,68.48
2018-06-19T03:13:01.438Z,68.79
2018-06-19T03:15:28.983Z,68.74
2018-06-19T03:17:56.434Z,68.70
2018-06-19T03:20:23.886Z,68.29
2018-06-19T03:22:51.398Z,68.22
2018-06-19T03:25:18.840Z,68.65
2018-06-19T03:27:46.297Z,68.65
2018-06-19T03:30:13.801Z,68.33
2018-06-19T03:32:41.292Z,68.13
2018-06-19T03:35:08.753Z,68.14
2018-06-19T03:37:36.181Z,68.10
2018-06-19T03:40:03.763Z,68.01
2018-06-19T03:42:31.236Z,67.67
2018-06-19T03:44:58.672Z,67.55
2018-06-19T03:47:26.163Z,68.08
2018-06-19T03:49:53.586Z,67.99
2018-06-19T03:52:21.054Z,68.17
2018-06-19T03:54:48.505Z,68.05
2018-06-19T03:57:15.952Z,68.34
2018-06-19T03:59:43.433Z,68.84
2018-06-19T04:02:10.862Z,68.73
2018-06-19T04:04:38.393Z,68.54
2018-06-19T04:07:05.793Z,68.50
2018-06-19T04:09:33.243Z,68.23
2018-06-19T04:12:00.706Z,67.88
2018-06-19T04:14:28.182Z,67.66
2018-06-19T04:16:55.958Z,67.18
2018-06-19T04:19:23.399Z,67.24
2018-06-19T04:21:50.809Z,67.42
2018-06-19T04:24:18.236Z,66.97
2018-06-19T04:26:45.646Z,66.52
2018-06-19T04:29:13.566Z,66.48
2018-06-19T04:31:41.056Z,66.19
2018-06-19T04:34:08.554Z,66.15
2018-06-19T04:36:36.015Z,65.89
2018-06-19T04:39:03.446Z,65.65
2018-06-19T04:41:30.955Z,65.39
2018-06-19T04:43:58.386Z,64.93
2018-06-19T04:46:25.833Z,64.64
2018-06-19T04:48:53.286Z,64.41
2018-06-19T04:51:20.771Z,64.15
2018-06-19T04:53:48.822Z,63.95
2018-06-19T04:56:16.340Z,63.73
2018-06-19T04:58:43.897Z,63.71
2018-06-19T05:01:11.503Z,63.57
2018-06-19T05:03:38.951Z,63.28
2018-06-19T05:06:06.367Z,63.13
2018-06-19T05:08:34.807Z,62.51
2018-06-19T05:11:02.280Z,62.53
2018-06-19T05:13:29.747Z,62.20
2018-06-19T05:15:57.216Z,61.77
2018-06-19T05:18:24.682Z,61.35
2018-06-19T05:20:52.090Z,61.07
2018-06-19T05:23:19.657Z,60.64
2018-06-19T05:25:47.079Z,60.22
2018-06-19T05:28:14.672Z,60.28
2018-06-19T05:30:42.107Z,60.29
2018-06-19T05:33:09.576Z,59.93
2018-06-19T05:35:37.001Z,59.93
2018-06-19T05:38:04.594Z,60.07
2018-06-19T05:40:32.005Z,60.03
2018-06-19T05:42:59.484Z,59.69
2018-06-19T05:45:26.969Z,59.39
2018-06-19T05:47:54.643Z,59.31
2018-06-19T05:50:22.078Z,58.93
2018-06-19T05:52:49.620Z,59.39
2018-06-19T05:55:17.709Z,59.45
2018-06-19T05:57:45.188Z,59.78
2018-06-19T06:00:12.800Z,59.74
2018-06-19T06:02:40.232Z,59.74
2018-06-19T06:05:07.689Z,59.64
2018-06-19T06:07:35.187Z,59.12
2018-06-19T06:10:02.663Z,58.73
2018-06-19T06:12:30.263Z,58.31
2018-06-19T06:14:57.825Z,58.20
2018-06-19T06:17:25.388Z,57.11
2018-06-19T06:19:52.996Z,56.59
2018-06-19T06:22:20.470Z,57.03
2018-06-19T06:24:47.973Z,57.02
2018-06-19T06:27:15.407Z,56.90
2018-06-19T06:29:43.008Z,56.85
2018-06-19T06:32:10.428Z,57.32
2018-06-19T06:34:37.886Z,57.03
2018-06-19T06:37:05.408Z,57.37
2018-06-19T06:39:32.850Z,57.61
2018-06-19T06:42:00.316Z,57.60
2018-06-19T06:44:28.029Z,56.76
2018-06-19T06:46:55.517Z,56.53
2018-06-19T06:49:22.914Z,55.75
2018-06-19T06:51:50.578Z,55.63
2018-06-19T06:54:18.218Z,55.17
2018-06-19T06:56:45.712Z,54.34
2018-06-19T06:59:13.296Z,53.53
2018-06-19T07:01:40.744Z,53.14
2018-06-19T07:04:08.289Z,52.87
2018-06-19T07:06:35.771Z,52.88
2018-06-19T07:09:03.206Z,52.34
2018-06-19T07:11:30.751Z,52.18
2018-06-19T07:13:58.277Z,51.58
2018-06-19T07:16:25.781Z,51.30
2018-06-19T07:18:53.471Z,50.89
2018-06-19T07:21:21.117Z,51.17
2018-06-19T07:23:49.031Z,50.06
2018-06-19T07:26:16.808Z,49.95
2018-06-19T07:28:44.757Z,49.45
2018-06-19T07:31:14.806Z,50.53
2018-06-19T07:33:42.381Z,50.24
2018-06-19T07:36:09.847Z,50.02
2018-06-19T07:38:37.315Z,49.78
2018-06-19T07:41:05.156Z,49.36
2018-06-19T07:43:32.833Z,47.83
2018-06-19T07:46:00.370Z,46.89
2018-06-19T07:48:27.804Z,46.38
2018-06-19T07:50:55.342Z,45.69
2018-06-19T07:53:22.932Z,44.94
2018-06-19T07:55:50.342Z,44.46
2018-06-19T07:58:17.839Z,44.22
2018-06-19T08:00:45.301Z,44.15
2018-06-19T08:03:12.730Z,43.50
2018-06-19T08:05:40.171Z,42.84
2018-06-19T08:08:07.628Z,42.92
2018-06-19T08:10:35.205Z,42.37
2018-06-19T08:13:02.703Z,42.65
2018-06-19T08:15:30.199Z,42.86
2018-06-19T08:17:57.684Z,42.59
2018-06-19T08:20:25.344Z,41.88
2018-06-19T08:22:52.798Z,41.41
2018-06-19T08:25:20.219Z,41.30
2018-06-19T08:27:48.820Z,41.71
2018-06-19T08:30:16.457Z,41.43
2018-06-19T08:32:43.884Z,41.68
2018-06-19T08:35:11.017Z,41.97
2018-06-19T08:37:38.062Z,41.54
2018-06-19T08:40:05.488Z,41.47
2018-06-19T08:42:32.963Z,41.79
2018-06-19T08:45:00.493Z,42.58
2018-06-19T08:47:28.027Z,43.22
2018-06-19T08:49:55.491Z,43.01
2018-06-19T08:52:23.151Z,43.35
2018-06-19T08:54:50.579Z,43.60
2018-06-19T08:57:18.022Z,43.84
2018-06-19T08:59:45.505Z,43.97
2018-06-19T09:02:13.037Z,44.21
2018-06-19T09:04:40.645Z,43.94
2018-06-19T09:07:08.170Z,43.50
2018-06-19T09:09:35.564Z,43.76
2018-06-19T09:12:03.114Z,43.47
2018-06-19T09:14:30.552Z,43.22
2018-06-19T09:16:58.109Z,43.64
2018-06-19T09:19:25.811Z,43.67
2018-06-19T09:21:53.251Z,44.31
2018-06-19T09:24:20.800Z,44.49
2018-06-19T09:26:48.276Z,44.50
2018-06-19T09:29:16.158Z,44.18
2018-06-19T09:31:43.612Z,43.51
2018-06-19T09:34:11.054Z,42.81
2018-06-19T09:36:38.593Z,43.06
2018-06-19T09:39:06.084Z,43.29
2018-06-19T09:41:33.519Z,43.71
2018-06-19T09:44:01.157Z,43.50
2018-06-19T09:46:28.928Z,43.56
2018-06-19T09:48:57.341Z,43.64
2018-06-19T09:51:24.836Z,42.90
2018-06-19T09:53:52.540Z,42.65
2018-06-19T09:56:20.114Z,42.10
2018-06-19T09:58:47.162Z,41.50
2018-06-19T10:01:14.536Z,40.53
2018-06-19T10:03:41.645Z,40.20
2018-06-19T10:06:09.101Z,40.46
2018-06-19T10:08:36.578Z,40.41
2018-06-19T10:11:04.133Z,41.43
2018-06-19T10:13:31.078Z,41.35
2018-06-19T10:15:58.072Z,41.42
2018-06-19T10:18:25.252Z,41.00
2018-06-19T10:20:52.395Z,41.43
2018-06-19T10:23:20.174Z,41.08
2018-06-19T10:25:47.755Z,40.90
2018-06-19T10:28:14.930Z,40.53
2018-06-19T10:30:41.999Z,40.95
2018-06-19T10:33:09.012Z,41.04
2018-06-19T10:35:35.999Z,40.56
2018-06-19T10:38:03.182Z,40.87
2018-06-19T10:40:30.147Z,40.12
2018-06-19T10:42:57.165Z,39.36
2018-06-19T10:45:24.774Z,39.90
2018-06-19T10:47:51.804Z,39.76
2018-06-19T10:50:18.876Z,39.75
2018-06-19T10:52:46.373Z,39.74
2018-06-19T10:55:13.334Z,39.54
2018-06-19T10:57:40.544Z,39.56
2018-06-19T11:00:07.571Z,39.93
2018-06-19T11:02:34.551Z,40.21
2018-06-19T11:05:01.562Z,39.46
2018-06-19T11:07:28.466Z,38.86
2018-06-19T11:09:55.940Z,38.26
2018-06-19T11:12:22.918Z,37.89
2018-06-19T11:14:50.368Z,37.54
2018-06-19T11:17:17.828Z,37.13
2018-06-19T11:19:45.441Z,36.96
2018-06-19T11:22:12.850Z,37.24
2018-06-19T11:24:40.334Z,37.11
2018-06-19T11:27:07.925Z,36.73
2018-06-19T11:29:35.372Z,36.41
2018-06-19T11:32:02.982Z,36.13
2018-06-19T11:34:30.491Z,37.05
2018-06-19T11:36:57.954Z,36.47
2018-06-19T11:39:25.424Z,37.21
2018-06-19T11:41:53.077Z,36.59
2018-06-19T11:44:20.534Z,36.47
2018-06-19T11:46:48.123Z,35.79
2018-06-19T11:49:15.588Z,35.76
2018-06-19T11:51:43.138Z,35.63
2018-06-19T11:54:10.619Z,34.88
2018-06-19T11:56:38.233Z,35.10
2018-06-19T11:59:06.244Z,35.21
2018-06-19T12:01:33.275Z,35.85
2018-06-19T12:04:01.264Z,35.17
2018-06-19T12:06:28.708Z,35.15
2018-06-19T12:08:56.290Z,35.26
2018-06-19T12:11:23.796Z,34.75
2018-06-19T12:13:51.350Z,34.80
2018-06-19T12:16:18.826Z,34.62
2018-06-19T12:18:46.321Z,34.42
2018-06-19T12:21:13.783Z,34.44
2018-06-19T12:23:41.244Z,35.14
2018-06-19T12:26:08.673Z,34.62
2018-06-19T12:28:36.080Z,34.50
2018-06-19T12:31:03.579Z,35.05
2018-06-19T12:33:31.189Z,34.22
2018-06-19T12:35:58.712Z,34.30
2018-06-19T12:38:26.295Z,34.37
2018-06-19T12:40:53.765Z,34.11
2018-06-19T12:43:21.302Z,34.24
2018-06-19T12:45:48.764Z,34.14
2018-06-19T12:48:16.208Z,34.10
2018-06-19T12:53:52.367Z,34.25
2018-06-19T12:56:19.821Z,34.15
2018-06-19T12:58:47.254Z,34.25
2018-06-19T13:01:14.659Z,34.07
2018-06-19T13:03:53.784Z,33.48
2018-06-19T13:06:27.249Z,33.41
2018-06-19T13:08:54.759Z,33.02
2018-06-19T13:11:22.368Z,32.71
2018-06-19T13:14:02.031Z,33.14
2018-06-19T13:19:43.967Z,32.09
2018-06-19T13:22:11.713Z,32.13
2018-06-19T13:24:39.143Z,32.39
2018-06-19T13:27:07.099Z,32.49
2018-06-19T13:32:37.318Z,32.13
2018-06-19T13:35:04.791Z,32.33
2018-06-19T13:37:32.241Z,32.20
2018-06-19T13:39:59.748Z,31.78
2018-06-19T13:45:38.322Z,31.99
2018-06-19T13:48:05.782Z,32.66
2018-06-19T13:50:33.259Z,32.01
2018-06-19T13:53:01.163Z,32.00
2018-06-19T13:58:45.517Z,32.57
2018-06-19T14:01:12.980Z,31.91
2018-06-19T14:03:40.451Z,32.63
2018-06-19T14:06:07.940Z,32.92
2018-06-19T14:08:35.770Z,32.55
2018-06-19T14:14:01.041Z,31.95
2018-06-19T14:16:29.063Z,31.77
2018-06-19T14:18:56.661Z,31.54
2018-06-19T14:21:24.164Z,32.10
2018-06-19T14:23:51.675Z,31.69
2018-06-19T14:26:19.158Z,31.16
2018-06-19T14:28:46.740Z,31.04
2018-06-19T14:31:14.219Z,31.60
2018-06-19T14:33:41.653Z,32.00
2018-06-19T14:36:09.303Z,32.05
2018-06-19T14:38:36.806Z,31.48
2018-06-19T14:41:09.716Z,31.40
2018-06-19T14:43:37.246Z,31.31
2018-06-19T14:46:04.705Z,31.46
2018-06-19T14:48:32.247Z,31.17
2018-06-19T14:50:59.756Z,31.32
2018-06-19T14:53:27.223Z,31.38
2018-06-19T14:55:54.745Z,31.54
2018-06-19T14:58:22.389Z,30.97
2018-06-19T15:00:49.919Z,30.79
2018-06-19T15:03:17.449Z,31.09
2018-06-19T15:05:44.970Z,30.83
2018-06-19T15:08:12.622Z,31.13
2018-06-19T15:10:40.116Z,31.06
2018-06-19T15:13:07.605Z,31.53
2018-06-19T15:15:35.122Z,31.71
2018-06-19T15:18:02.552Z,32.01
2018-06-19T15:20:30.244Z,32.34
2018-06-19T15:22:57.725Z,32.87
2018-06-19T15:25:25.227Z,32.84
2018-06-19T15:27:52.694Z,33.34
2018-06-19T15:30:20.218Z,33.44
2018-06-19T15:32:47.709Z,34.08
2018-06-19T15:35:15.348Z,33.56
2018-06-19T15:37:42.943Z,33.54
2018-06-19T15:40:10.382Z,33.62
2018-06-19T15:42:38.034Z,33.31
2018-06-19T15:45:05.469Z,33.66
2018-06-19T15:47:33.177Z,33.57
2018-06-19T15:50:00.700Z,33.86
2018-06-19T15:52:28.199Z,33.58
2018-06-19T15:54:55.657Z,33.52
2018-06-19T15:57:23.170Z,33.89
2018-06-19T15:59:50.616Z,33.42
2018-06-19T16:02:18.091Z,33.19
2018-06-19T16:04:45.584Z,33.34
2018-06-19T16:07:13.057Z,33.89
2018-06-19T16:09:40.643Z,34.04
2018-06-19T16:12:08.103Z,33.94
2018-06-19T16:14:36.169Z,34.22
2018-06-19T16:17:03.595Z,34.53
2018-06-19T16:19:31.155Z,34.51
2018-06-19T16:21:58.628Z,34.29
2018-06-19T16:24:26.186Z,34.48
2018-06-19T16:26:53.821Z,34.87
2018-06-19T16:29:21.369Z,34.62
2018-06-19T16:31:48.772Z,34.81
2018-06-19T16:34:16.250Z,35.34
2018-06-19T16:36:43.805Z,35.19
2018-06-19T16:39:11.310Z,35.25
2018-06-19T16:41:38.832Z,35.20
2018-06-19T16:44:06.335Z,34.70
2018-06-19T16:46:33.835Z,34.98
2018-06-19T16:49:01.434Z,33.90
2018-06-19T16:51:28.894Z,33.77
2018-06-19T16:53:56.321Z,33.90
2018-06-19T16:56:23.821Z,33.92
2018-06-19T16:58:51.316Z,33.23
2018-06-19T17:01:19.161Z,32.62
2018-06-19T17:03:46.702Z,32.61
2018-06-19T17:06:14.147Z,32.63
2018-06-19T17:08:41.616Z,32.41
2018-06-19T17:11:09.092Z,32.55
2018-06-19T17:13:36.630Z,32.72
2018-06-19T17:16:04.034Z,32.47
2018-06-19T17:18:31.607Z,32.85
2018-06-19T17:20:59.123Z,32.92
2018-06-19T17:23:26.728Z,33.43
2018-06-19T17:25:54.278Z,33.54
2018-06-19T17:28:21.876Z,33.73
2018-06-19T17:30:49.314Z,33.94
2018-06-19T17:33:16.781Z,34.62
2018-06-19T17:35:44.217Z,34.66
2018-06-19T17:38:11.781Z,35.52
2018-06-19T17:40:40.496Z,35.41
2018-06-19T17:43:07.998Z,35.82
2018-06-19T17:45:35.516Z,36.52
2018-06-19T17:48:02.936Z,36.62
2018-06-19T17:50:30.353Z,36.79
2018-06-19T17:52:57.787Z,36.98
2018-06-19T17:55:25.951Z,37.45
2018-06-19T17:57:59.356Z,37.82
2018-06-19T18:00:26.815Z,38.05
2018-06-19T18:02:54.229Z,38.82
2018-06-19T18:05:21.705Z,39.12
2018-06-19T18:07:49.191Z,39.20
2018-06-19T18:10:16.709Z,39.49
2018-06-19T18:12:44.225Z,39.93
2018-06-19T18:15:11.667Z,40.23
2018-06-19T18:17:39.168Z,40.85
2018-06-19T18:20:06.644Z,41.21
2018-06-19T18:22:34.161Z,41.52
2018-06-19T18:25:01.704Z,41.67
2018-06-19T18:27:29.135Z,41.95
2018-06-19T18:29:56.687Z,42.01
2018-06-19T18:32:24.148Z,42.13
2018-06-19T18:34:51.587Z,42.24
2018-06-19T18:37:18.996Z,42.36
2018-06-19T18:39:46.461Z,42.72
2018-06-19T18:42:14.318Z,43.20
2018-06-19T18:44:41.810Z,43.87
2018-06-19T18:47:09.383Z,44.63
2018-06-19T18:49:36.895Z,45.25
2018-06-19T18:52:04.373Z,45.81
2018-06-19T18:54:31.946Z,46.80
2018-06-19T18:56:59.347Z,47.43
2018-06-19T18:59:26.829Z,47.93
2018-06-19T19:01:54.265Z,48.42
2018-06-19T19:04:21.846Z,48.89
2018-06-19T19:06:49.259Z,49.29
2018-06-19T19:09:16.711Z,49.62
2018-06-19T19:11:44.244Z,49.90
2018-06-19T19:14:11.703Z,50.06
2018-06-19T19:19:36.215Z,49.80
2018-06-19T19:22:03.726Z,49.70
2018-06-19T19:24:31.209Z,50.15
2018-06-19T19:26:58.659Z,50.48
2018-06-19T19:29:31.684Z,51.05
2018-06-19T19:31:59.209Z,51.42
2018-06-19T19:34:26.724Z,52.37
2018-06-19T19:36:54.224Z,52.57
2018-06-19T19:39:24.089Z,52.80
2018-06-19T19:41:51.586Z,53.04
2018-06-19T19:44:19.031Z,53.27
2018-06-19T19:46:46.437Z,53.45
2018-06-19T19:49:13.879Z,53.29
2018-06-19T19:51:41.341Z,53.29
2018-06-19T19:54:08.824Z,53.26
2018-06-19T19:56:36.313Z,53.51
2018-06-19T19:59:03.782Z,53.60
2018-06-19T20:01:31.283Z,53.68
2018-06-19T20:03:58.692Z,53.87
2018-06-19T20:06:26.235Z,54.01
2018-06-19T20:08:53.651Z,54.16
2018-06-19T20:11:21.327Z,54.35
2018-06-19T20:13:48.822Z,54.67
2018-06-19T20:16:16.450Z,54.84
2018-06-19T20:18:44.007Z,55.03
2018-06-19T20:21:11.531Z,55.18
2018-06-19T20:23:39.021Z,55.01
2018-06-19T20:26:06.464Z,54.81
2018-06-19T20:28:33.949Z,55.00
2018-06-19T20:31:01.367Z,55.29
2018-06-19T20:33:28.837Z,55.34
2018-06-19T20:35:56.331Z,55.80
2018-06-19T20:38:24.658Z,55.91
2018-06-19T20:40:52.101Z,55.56
2018-06-19T20:43:19.600Z,55.80
2018-06-19T20:45:47.076Z,55.82
2018-06-19T20:48:14.540Z,55.83
2018-06-19T20:50:41.951Z,56.00
2018-06-19T20:53:09.500Z,56.18
2018-06-19T20:55:36.974Z,55.91
2018-06-19T20:58:04.452Z,55.97
2018-06-19T21:00:31.917Z,55.81
2018-06-19T21:02:59.406Z,55.90
2018-06-19T21:05:26.890Z,55.84
2018-06-19T21:07:54.392Z,55.50
2018-06-19T21:10:21.855Z,55.04
2018-06-19T21:12:49.310Z,54.54
2018-06-19T21:15:16.768Z,54.45
2018-06-19T21:17:44.211Z,54.63
2018-06-19T21:20:11.733Z,54.73
2018-06-19T21:22:39.214Z,54.77
2018-06-19T21:25:06.672Z,54.57
2018-06-19T21:27:34.204Z,54.57
2018-06-19T21:30:01.776Z,54.50
2018-06-19T21:32:29.223Z,54.77
2018-06-19T21:34:56.854Z,54.94
2018-06-19T21:37:24.962Z,54.88
2018-06-19T21:39:52.507Z,54.80
2018-06-19T21:42:20.170Z,54.49
2018-06-19T21:44:47.855Z,54.26
2018-06-19T21:47:15.363Z,54.28
2018-06-19T21:49:42.764Z,54.36
2018-06-19T21:52:10.194Z,54.60
2018-06-19T21:54:37.698Z,54.61
2018-06-19T21:57:05.267Z,54.48
2018-06-19T21:59:32.768Z,54.73
2018-06-19T22:02:00.173Z,54.56
2018-06-19T22:04:27.616Z,54.46
2018-06-19T22:06:55.064Z,54.47
2018-06-19T22:09:22.554Z,54.28
2018-06-19T22:11:50.011Z,54.63
2018-06-19T22:14:17.484Z,55.00
2018-06-19T22:16:44.974Z,54.94
2018-06-19T22:19:12.470Z,54.76
2018-06-19T22:21:39.886Z,54.69
2018-06-19T22:24:07.375Z,54.69
2018-06-19T22:26:34.782Z,54.91
2018-06-19T22:29:02.333Z,54.87
2018-06-19T22:31:29.799Z,55.05
2018-06-19T22:33:57.430Z,55.50
2018-06-19T22:36:24.936Z,55.67
2018-06-19T22:38:52.515Z,55.72
2018-06-19T22:41:19.957Z,55.47
2018-06-19T22:43:47.386Z,55.45
2018-06-19T22:46:14.862Z,55.72
2018-06-19T22:48:42.307Z,55.97
2018-06-19T22:51:09.752Z,56.41
2018-06-19T22:53:37.194Z,56.50
2018-06-19T22:56:04.640Z,56.39
2018-06-19T22:58:32.207Z,56.68
2018-06-19T23:00:59.657Z,57.22
2018-06-19T23:03:27.092Z,57.41
2018-06-19T23:05:54.498Z,57.40
2018-06-19T23:08:21.951Z,57.57
2018-06-19T23:10:49.370Z,57.55
2018-06-19T23:13:16.776Z,57.39
2018-06-19T23:15:44.208Z,57.43
2018-06-19T23:18:11.665Z,57.33
2018-06-19T23:20:39.083Z,57.72
2018-06-19T23:23:06.591Z,57.59
2018-06-19T23:25:34.059Z,57.64
2018-06-19T23:28:01.550Z,57.66
2018-06-19T23:30:29.007Z,58.07
2018-06-19T23:32:56.479Z,58.21
2018-06-19T23:35:24.152Z,58.11
2018-06-19T23:37:51.627Z,58.49
2018-06-19T23:40:19.139Z,58.33
2018-06-19T23:42:46.624Z,58.33
2018-06-19T23:45:14.052Z,58.98
2018-06-19T23:47:41.504Z,58.95
2018-06-19T23:50:08.944Z,59.38
2018-06-19T23:52:36.356Z,59.78
2018-06-19T23:55:03.848Z,60.05
2018-06-19T23:57:31.353Z,60.11
2018-06-19T23:59:58.791Z,60.30
